الصفحة الرئيسية
METAR-TAF:

METAR-TAF

مطار :

Esbjerg, الدنمارك

دائرة عرض: 55-32N, خط طول: 008-34E, ارتفاع: 30 متر

مراقبة الطقس الحالي

تاريخ ووقت الإصدار 13 دقيقة قبل الساعة 18:20UTC
ريح 9 عقدة من الشرق/الشمال الشرقي
درجة الحرارة 8°درجة مئوية
الرطوبة 93%
ضغط 1008 hPa
الرؤية: 4700 متر
غشاء,

METAR: EKEB 031820Z AUTO 07009KT 4700 BR BKN008/// 08/07 Q1008

زمن: 19:33 (18:33 UTC)

توقعات

تاريخ ووقت الإصدار 1ساعة و 13 دقيقة قبل الساعة 17:20UTC
التوقعات صالحة من03 الساعة 18 UTC إلى 03 الساعة 22 UTC
ريح 12 عقدة من الشرق/الشمال الشرقي
الرؤية: 4000 متر
غيوم مفككة على ارتفاع 600 قدم
غشاء
مؤقت
من 03 الساعة 18 UTC إلى 03 الساعة 22 UTC
الرؤية: 1400 متر
غيوم مفككة على ارتفاع 300 قدم

TAF: EKEB 031720Z 0318/0322 07012KT 4000 BR BKN006 TEMPO 0318/0322 1400 BKN003

أرصاد الطقس والتوقعات من أكثر من 4000 مطار (تقارير الطقس للمطار METAR والتنبؤ بالطقس بالمطارTAF).

المحطات المتاحة هي النقط الصفراء والحمراء على الخريطة.

حرك المؤشر فوق النقطة لمعرفة اسم المحطة.

ثم انقر لمعرفة أرصاد وتوقعات الطقس.

لتغيير الخارطة: اضغط على الأزرار الخضراء مع رمز الصليب الأسود للتكبير. على الزر الأخضر مع شرطة للتصغير، أو على الأسهم الخضراء للخرائط المجاورة.


METAR-TAF: